Time;durP1;ratioP1;P1;durP2;ratioP2;P2;SDS_P1;SDS_P2;PMS_P1;PMS_P2;Temp;Humidity;BMP_temperature;BMP_pressure;BME280_temperature;BME280_humidity;BME280_pressure;Samples;Min_cycle;Max_cycle;Signal;HPM_P1;HPM_P2
2022/10/30 00:00:42;;;;;;;46.47;24.75;;;;;;;14.86;77.17;100594.34;4304835;33;34744;-75
2022/10/30 00:03:12;;;;;;;43.17;23.98;;;;;;;14.96;76.68;100578.06;4303401;33;34413;-75
2022/10/30 00:05:44;;;;;;;42.15;23.33;;;;;;;14.77;77.58;100589.34;4304679;33;34638;-74
2022/10/30 00:08:13;;;;;;;41.85;23.62;;;;;;;14.90;77.24;100577.19;4302867;33;33470;-76
2022/10/30 00:10:40;;;;;;;43.42;23.33;;;;;;;14.98;76.89;100575.87;4303934;33;33675;-75
2022/10/30 00:13:08;;;;;;;46.33;24.85;;;;;;;15.09;76.32;100583.09;4304620;33;35108;-75
2022/10/30 00:15:36;;;;;;;40.55;23.40;;;;;;;15.07;76.32;100582.53;4304481;33;33982;-75
2022/10/30 00:18:04;;;;;;;49.13;23.73;;;;;;;15.32;75.37;100592.06;4303815;33;33494;-77
2022/10/30 00:20:31;;;;;;;42.92;24.35;;;;;;;15.37;74.84;100582.00;4298723;33;33967;-74
2022/10/30 00:22:59;;;;;;;45.47;23.35;;;;;;;15.39;74.56;100574.34;4290185;33;34292;-75
2022/10/30 00:25:26;;;;;;;44.45;22.77;;;;;;;14.89;76.71;100580.19;4290136;33;33897;-75
2022/10/30 00:27:54;;;;;;;46.63;24.75;;;;;;;15.32;75.34;100578.41;4290180;33;33490;-75
2022/10/30 00:30:21;;;;;;;43.10;22.92;;;;;;;15.39;74.53;100577.09;4290645;33;33827;-75
2022/10/30 00:32:49;;;;;;;42.15;23.62;;;;;;;15.44;74.33;100578.22;4300918;33;34340;-75
2022/10/30 00:35:16;;;;;;;43.53;23.40;;;;;;;15.14;75.46;100574.12;4304605;33;34674;-75
2022/10/30 00:37:44;;;;;;;41.10;23.15;;;;;;;15.38;74.55;100566.44;4304501;33;34335;-75
2022/10/30 00:40:14;;;;;;;47.00;23.52;;;;;;;15.16;75.24;100569.22;4308022;33;33755;-75
2022/10/30 00:42:43;;;;;;;41.58;22.13;;;;;;;15.08;75.93;100556.88;4310472;33;34285;-75
2022/10/30 00:45:12;;;;;;;39.67;24.08;;;;;;;15.16;75.36;100556.41;4307892;33;33923;-75
2022/10/30 00:47:51;;;;;;;46.88;23.83;;;;;;;14.85;76.62;100557.19;4309205;33;33947;-74
2022/10/30 00:50:25;;;;;;;40.22;22.27;;;;;;;14.92;76.68;100552.31;4307940;33;33850;-74
2022/10/30 00:53:12;;;;;;;41.63;22.67;;;;;;;14.88;76.87;100556.66;4308906;33;34220;-74
2022/10/30 00:55:47;;;;;;;44.05;22.73;;;;;;;14.87;77.00;100555.03;4309173;33;33642;-76
2022/10/30 00:58:15;;;;;;;;;;;;;;;14.81;77.32;100553.31;4307331;33;34256;-75
2022/10/30 01:00:46;;;;;;;38.13;21.60;;;;;;;14.20;80.85;100553.38;4306562;33;34158;-75
2022/10/30 01:03:15;;;;;;;40.67;22.42;;;;;;;14.52;79.20;100551.59;4301918;33;34260;-74
2022/10/30 01:05:44;;;;;;;39.63;21.60;;;;;;;13.91;81.88;100550.81;4303164;33;33838;-75
2022/10/30 01:08:12;;;;;;;41.88;22.13;;;;;;;14.10;81.30;100556.78;4300641;33;34287;-75
2022/10/30 01:10:39;;;;;;;37.97;20.58;;;;;;;14.60;78.67;100557.72;4288177;33;33602;-75
2022/10/30 01:13:07;;;;;;;37.53;20.98;;;;;;;14.77;77.12;100553.84;4288777;33;34263;-76
2022/10/30 01:15:39;;;;;;;39.25;21.35;;;;;;;14.89;76.51;100545.47;4288798;33;33792;-76
2022/10/30 01:19:05;;;;;;;39.17;21.85;;;;;;;14.88;76.54;100548.44;4288773;33;33545;-76
2022/10/30 01:22:02;;;;;;;44.30;21.12;;;;;;;14.50;78.81;100540.09;4294151;33;34892;-76
2022/10/30 01:24:38;;;;;;;34.60;20.50;;;;;;;14.86;77.04;100535.06;4288583;33;33722;-75
2022/10/30 01:27:28;;;;;;;41.85;21.62;;;;;;;15.12;75.69;100532.59;4289830;33;34143;-75
2022/10/30 01:30:19;;;;;;;39.28;20.95;;;;;;;15.06;75.67;100531.69;4289956;33;33196;-75
2022/10/30 01:33:00;;;;;;;39.03;20.90;;;;;;;15.04;75.73;100527.59;4288643;33;33613;-75
2022/10/30 01:35:41;;;;;;;36.53;20.58;;;;;;;14.82;76.19;100514.81;4292762;33;34303;-76
2022/10/30 01:38:13;;;;;;;34.33;20.88;;;;;;;14.72;76.96;100511.97;4302302;33;33955;-75
2022/10/30 01:40:43;;;;;;;38.28;20.60;;;;;;;14.57;77.50;100512.63;4304319;33;34571;-75
2022/10/30 01:43:11;;;;;;;42.00;22.85;;;;;;;14.73;76.81;100506.25;4302621;33;32837;-73
2022/10/30 01:45:53;;;;;;;38.20;20.70;;;;;;;15.12;75.59;100505.25;4304142;33;35066;-74
2022/10/30 01:48:43;;;;;;;34.83;20.05;;;;;;;14.53;77.88;100506.81;4303747;33;33959;-75
2022/10/30 01:51:23;;;;;;;38.72;20.55;;;;;;;14.61;77.81;100508.31;4293691;33;33638;-75
2022/10/30 01:54:15;;;;;;;34.95;19.12;;;;;;;14.80;77.37;100513.44;4289549;33;34844;-76
2022/10/30 01:57:02;;;;;;;36.65;19.98;;;;;;;14.77;77.41;100525.66;4302339;33;34216;-75
2022/10/30 01:59:38;;;;;;;32.13;18.95;;;;;;;14.39;79.02;100524.69;4290300;33;33867;-75
2022/10/30 02:02:06;;;;;;;40.03;20.35;;;;;;;14.56;78.60;100527.38;4312221;33;33761;-75
2022/10/30 02:04:34;;;;;;;33.92;19.83;;;;;;;14.80;77.12;100519.72;4288288;33;33984;-76
2022/10/30 02:07:02;;;;;;;35.72;18.95;;;;;;;14.51;78.49;100509.00;4293150;33;34929;-76
2022/10/30 02:09:33;;;;;;;34.83;18.77;;;;;;;14.69;77.76;100517.97;4303966;33;33748;-75
2022/10/30 02:12:01;;;;;;;33.97;19.17;;;;;;;14.07;80.89;100522.66;4301944;33;33566;-75
2022/10/30 02:14:33;;;;;;;31.33;17.50;;;;;;;14.45;79.06;100523.69;4289865;33;32982;-75
2022/10/30 02:17:04;;;;;;;29.30;16.65;;;;;;;14.57;78.56;100529.03;4302711;33;33955;-75
2022/10/30 02:19:32;;;;;;;27.98;16.30;;;;;;;14.48;78.43;100528.63;4302860;33;33848;-76
2022/10/30 02:22:02;;;;;;;27.33;16.15;;;;;;;15.07;75.37;100521.59;4303896;33;34235;-75
2022/10/30 02:24:30;;;;;;;28.62;16.58;;;;;;;14.93;74.89;100524.75;4304334;33;33868;-75
2022/10/30 02:26:59;;;;;;;28.10;16.70;;;;;;;14.96;75.04;100517.94;4304526;33;34268;-76
2022/10/30 02:29:26;;;;;;;32.80;17.73;;;;;;;15.04;74.37;100522.13;4302672;33;34041;-76
2022/10/30 02:31:54;;;;;;;27.42;16.08;;;;;;;14.74;75.54;100521.56;4304390;33;33420;-76
2022/10/30 02:34:21;;;;;;;29.70;17.27;;;;;;;13.65;81.63;100525.91;4305108;33;33840;-75
2022/10/30 02:36:49;;;;;;;27.50;16.60;;;;;;;13.71;81.86;100530.38;4305135;33;34101;-75
2022/10/30 02:39:16;;;;;;;31.75;17.15;;;;;;;13.81;81.40;100518.75;4305741;33;33969;-75
2022/10/30 02:41:44;;;;;;;29.27;16.45;;;;;;;13.09;85.76;100523.09;4305583;33;33532;-75
2022/10/30 02:44:11;;;;;;;28.45;16.12;;;;;;;13.66;82.80;100519.38;4299863;33;33984;-74
2022/10/30 02:46:39;;;;;;;25.88;15.02;;;;;;;14.02;80.87;100522.59;4305334;33;33945;-75
2022/10/30 02:49:07;;;;;;;27.00;15.77;;;;;;;14.00;80.45;100519.28;4294370;33;33969;-76
2022/10/30 02:51:34;;;;;;;28.35;16.10;;;;;;;14.21;79.13;100514.09;4290929;33;33452;-75
2022/10/30 02:54:02;;;;;;;26.90;16.33;;;;;;;13.60;82.77;100514.91;4290894;33;34012;-75
2022/10/30 02:56:30;;;;;;;30.35;16.25;;;;;;;14.03;80.39;100516.06;4290767;33;34200;-75
2022/10/30 02:58:59;;;;;;;31.08;16.40;;;;;;;14.37;78.49;100513.19;4290629;33;33759;-76
2022/10/30 03:01:26;;;;;;;27.23;16.60;;;;;;;14.54;77.51;100516.69;4291987;33;34432;-75
2022/10/30 03:03:54;;;;;;;29.48;16.23;;;;;;;14.24;78.69;100527.25;4293387;33;34079;-75
2022/10/30 03:06:22;;;;;;;28.30;17.23;;;;;;;14.05;79.92;100521.25;4290536;33;34480;-75
2022/10/30 03:08:49;;;;;;;24.83;15.68;;;;;;;13.96;80.34;100520.88;4294790;33;33814;-75
2022/10/30 03:11:18;;;;;;;27.98;15.68;;;;;;;14.09;79.36;100515.03;4303977;33;33393;-75
2022/10/30 03:13:47;;;;;;;26.10;16.12;;;;;;;14.35;78.25;100520.81;4303787;33;33709;-76
2022/10/30 03:16:15;;;;;;;25.85;15.35;;;;;;;14.19;78.70;100510.78;4304326;33;34225;-75
2022/10/30 03:18:43;;;;;;;28.65;16.80;;;;;;;14.10;79.02;100519.44;4303882;33;33657;-75
2022/10/30 03:21:13;;;;;;;27.80;15.80;;;;;;;13.06;84.36;100517.28;4304120;33;33315;-75
2022/10/30 03:23:41;;;;;;;30.05;16.87;;;;;;;13.53;82.26;100519.72;4297023;33;34096;-76
2022/10/30 03:26:09;;;;;;;28.75;16.55;;;;;;;13.07;85.73;100519.78;4289500;33;34064;-76
2022/10/30 03:28:37;;;;;;;33.00;18.12;;;;;;;13.73;82.04;100511.81;4289799;33;33321;-76
2022/10/30 03:31:10;;;;;;;29.50;16.73;;;;;;;13.30;84.83;100513.38;4290626;33;33400;-76
2022/10/30 03:33:39;;;;;;;28.95;16.90;;;;;;;13.58;82.95;100508.88;4293821;33;33680;-75
2022/10/30 03:36:09;;;;;;;28.85;16.87;;;;;;;13.33;83.45;100514.78;4305162;33;34986;-75
2022/10/30 03:38:36;;;;;;;31.62;17.15;;;;;;;13.57;83.01;100509.16;4302873;33;34326;-75
2022/10/30 03:41:04;;;;;;;25.85;16.45;;;;;;;13.75;80.82;100512.41;4304839;33;33516;-75
2022/10/30 03:43:32;;;;;;;29.65;16.45;;;;;;;13.67;81.22;100507.41;4304849;33;34746;-75
2022/10/30 03:45:59;;;;;;;27.87;16.48;;;;;;;13.74;81.19;100513.50;4304753;33;34095;-75
2022/10/30 03:48:28;;;;;;;28.77;15.50;;;;;;;13.62;81.63;100520.12;4303746;33;33851;-75
2022/10/30 03:50:57;;;;;;;29.05;16.62;;;;;;;13.64;82.03;100510.59;4304257;33;34465;-75
2022/10/30 03:53:27;;;;;;;32.80;16.70;;;;;;;13.47;83.30;100512.53;4295303;33;34674;-76
2022/10/30 03:55:59;;;;;;;29.08;16.00;;;;;;;13.57;81.97;100512.69;4290898;33;34098;-75
2022/10/30 03:58:28;;;;;;;29.90;17.00;;;;;;;12.52;88.36;100513.06;4319560;33;34615;-75
2022/10/30 04:01:03;;;;;;;28.12;16.00;;;;;;;13.13;85.37;100507.91;4296560;33;33625;-75
2022/10/30 04:03:33;;;;;;;31.15;17.12;;;;;;;12.89;86.85;100517.25;4289408;33;33955;-75
2022/10/30 04:06:00;;;;;;;28.35;17.30;;;;;;;12.97;85.66;100508.69;4289132;33;34319;-75
2022/10/30 04:08:28;;;;;;;30.48;17.00;;;;;;;12.40;90.29;100495.16;4301050;33;33674;-75
2022/10/30 04:10:56;;;;;;;30.60;17.35;;;;;;;12.58;88.34;100496.84;4304975;33;34244;-75
2022/10/30 04:13:24;;;;;;;29.65;16.60;;;;;;;12.79;87.45;100496.12;4303834;33;34556;-75
2022/10/30 04:15:52;;;;;;;32.67;17.60;;;;;;;12.85;87.09;100500.59;4297276;33;33932;-74
2022/10/30 04:18:25;;;;;;;28.10;16.23;;;;;;;12.54;89.37;100499.22;4289045;33;32356;-75
2022/10/30 04:20:52;;;;;;;30.83;16.60;;;;;;;12.71;87.80;100508.25;4288954;33;34226;-76
2022/10/30 04:23:21;;;;;;;29.80;17.70;;;;;;;12.66;88.04;100500.00;4288942;33;33747;-75
2022/10/30 04:25:48;;;;;;;29.15;17.67;;;;;;;12.56;88.85;100504.41;4289344;33;34141;-75
2022/10/30 04:28:16;;;;;;;27.02;15.25;;;;;;;12.66;87.95;100500.00;4291092;33;33053;-76
2022/10/30 04:30:45;;;;;;;28.98;16.87;;;;;;;12.84;87.34;100503.56;4292165;33;34241;-75
2022/10/30 04:33:13;;;;;;;26.30;15.00;;;;;;;12.42;88.34;100499.28;4304641;33;33797;-79
2022/10/30 04:35:41;;;;;;;25.35;14.57;;;;;;;12.76;87.12;100507.50;4301492;33;34912;-72
2022/10/30 04:38:13;;;;;;;23.77;14.68;;;;;;;12.37;88.02;100501.87;4304788;33;34832;-72
2022/10/30 04:40:42;;;;;;;23.23;14.32;;;;;;;12.55;88.34;100505.47;4304694;33;33311;-72
2022/10/30 04:43:11;;;;;;;23.55;13.82;;;;;;;12.89;86.38;100507.22;4303522;33;33794;-71
2022/10/30 04:45:39;;;;;;;26.62;15.10;;;;;;;13.09;85.08;100504.00;4303496;33;35110;-72
2022/10/30 04:48:12;;;;;;;24.05;15.18;;;;;;;12.67;87.03;100500.81;4302664;33;33831;-74
2022/10/30 04:50:40;;;;;;;24.80;15.52;;;;;;;12.65;88.04;100503.75;4304009;33;33362;-71
2022/10/30 04:53:13;;;;;;;22.98;14.80;;;;;;;12.86;86.35;100491.34;4303358;33;33945;-72
2022/10/30 04:55:41;;;;;;;22.62;13.68;;;;;;;13.06;85.36;100498.22;4291056;33;34207;-72
2022/10/30 04:58:09;;;;;;;23.75;13.55;;;;;;;13.20;84.32;100506.91;4304815;33;34544;-73
2022/10/30 05:00:38;;;;;;;29.48;16.83;;;;;;;13.03;84.47;100502.28;4303572;33;34477;-71
2022/10/30 05:03:08;;;;;;;27.95;16.90;;;;;;;13.10;84.36;100502.09;4291350;33;34183;-75
2022/10/30 05:05:36;;;;;;;23.70;15.63;;;;;;;13.10;84.43;100507.56;4303368;33;33939;-71
2022/10/30 05:08:03;;;;;;;23.30;15.45;;;;;;;13.46;82.01;100500.81;4304533;33;33734;-73
2022/10/30 05:10:31;;;;;;;27.98;16.58;;;;;;;13.13;83.96;100507.03;4303340;33;33528;-73
2022/10/30 05:12:58;;;;;;;25.02;16.33;;;;;;;13.47;82.18;100507.06;4304341;33;34305;-74
2022/10/30 05:15:26;;;;;;;24.60;14.10;;;;;;;13.17;83.65;100501.94;4303166;33;34359;-70
2022/10/30 05:17:53;;;;;;;22.75;14.10;;;;;;;13.29;83.17;100500.00;4298968;33;33788;-75
2022/10/30 05:20:21;;;;;;;23.67;13.15;;;;;;;12.65;86.22;100508.41;4289397;33;33272;-73
2022/10/30 05:22:54;;;;;;;21.10;13.07;;;;;;;12.68;86.93;100511.47;4304572;33;36035;-75
2022/10/30 05:25:22;;;;;;;20.40;12.95;;;;;;;12.97;84.78;100513.31;4291390;33;33336;-73
2022/10/30 05:27:50;;;;;;;22.17;12.88;;;;;;;12.62;86.95;100523.31;4291059;33;33390;-73
2022/10/30 05:30:17;;;;;;;21.77;13.82;;;;;;;12.87;85.54;100524.84;4302901;33;33518;-75
2022/10/30 05:32:45;;;;;;;20.52;13.02;;;;;;;13.04;84.53;100528.41;4301890;33;34023;-74
2022/10/30 05:35:13;;;;;;;22.23;13.15;;;;;;;12.88;84.80;100527.34;4303901;33;35153;-71
2022/10/30 05:37:40;;;;;;;21.27;12.90;;;;;;;12.81;85.29;100532.13;4304311;33;34920;-72
2022/10/30 05:40:08;;;;;;;19.92;12.73;;;;;;;13.07;84.20;100524.41;4303234;33;33350;-72
2022/10/30 05:42:36;;;;;;;21.35;12.57;;;;;;;13.30;83.02;100537.91;4301259;33;34015;-71
2022/10/30 05:45:03;;;;;;;21.23;12.77;;;;;;;13.50;82.29;100540.12;4307761;33;34174;-71
2022/10/30 05:47:32;;;;;;;19.95;11.65;;;;;;;13.54;81.83;100543.16;4289652;33;33969;-74
2022/10/30 05:50:01;;;;;;;19.37;11.65;;;;;;;13.51;82.05;100551.84;4289325;33;33472;-71
2022/10/30 05:52:28;;;;;;;19.62;11.85;;;;;;;13.27;82.79;100551.16;4289172;33;33824;-70
2022/10/30 05:54:56;;;;;;;21.40;12.60;;;;;;;13.74;80.59;100532.59;4295226;33;34203;-73
2022/10/30 05:57:26;;;;;;;18.48;11.93;;;;;;;13.72;80.45;100536.63;4301738;33;34036;-76
2022/10/30 05:59:54;;;;;;;17.73;11.35;;;;;;;13.96;79.76;100534.53;4301796;33;33498;-76
2022/10/30 06:02:22;;;;;;;17.27;11.12;;;;;;;14.05;79.36;100534.91;4293347;33;34099;-72
2022/10/30 06:04:50;;;;;;;19.92;12.48;;;;;;;14.13;78.97;100532.56;4303542;33;35396;-72
2022/10/30 06:07:18;;;;;;;18.50;11.18;;;;;;;13.96;79.86;100534.53;4302586;33;33934;-74
2022/10/30 06:09:46;;;;;;;16.73;11.77;;;;;;;14.37;77.79;100537.78;4303251;33;33560;-74
2022/10/30 06:12:14;;;;;;;18.87;11.88;;;;;;;14.36;77.56;100534.22;4295098;33;33938;-75
2022/10/30 06:14:42;;;;;;;19.50;11.60;;;;;;;14.24;78.38;100532.69;4298318;33;161696;-76
2022/10/30 06:17:10;;;;;;;18.62;11.98;;;;;;;14.29;78.18;100530.03;4300117;33;34671;-74
2022/10/30 06:19:37;;;;;;;18.08;11.23;;;;;;;14.27;78.13;100530.28;4303624;33;34311;-75
2022/10/30 06:22:06;;;;;;;20.05;11.45;;;;;;;14.38;77.92;100538.59;4303662;33;34778;-74
2022/10/30 06:24:34;;;;;;;20.20;11.32;;;;;;;14.81;75.11;100537.72;4303860;33;34159;-77
2022/10/30 06:27:02;;;;;;;17.37;11.55;;;;;;;14.48;76.76;100545.00;4301469;33;32464;-76
2022/10/30 06:29:29;;;;;;;18.92;11.27;;;;;;;14.06;78.53;100542.84;4303488;33;34555;-77
2022/10/30 06:31:57;;;;;;;18.10;11.45;;;;;;;14.34;77.34;100546.47;4303589;33;34008;-77
2022/10/30 06:34:28;;;;;;;19.08;11.25;;;;;;;14.30;77.53;100548.06;4303636;33;34042;-76
2022/10/30 06:36:56;;;;;;;17.95;11.80;;;;;;;14.62;76.20;100540.00;4303655;33;33560;-76
2022/10/30 06:39:23;;;;;;;16.73;11.18;;;;;;;14.59;76.25;100545.97;4303542;33;33440;-76
2022/10/30 06:41:53;;;;;;;19.05;11.93;;;;;;;13.88;79.09;100540.41;4303382;33;34145;-75
2022/10/30 06:44:21;;;;;;;20.35;12.07;;;;;;;14.02;78.86;100532.69;4302630;33;35197;-76
2022/10/30 06:46:51;;;;;;;21.23;12.52;;;;;;;13.95;78.74;100543.75;4301999;33;33837;-74
2022/10/30 06:49:19;;;;;;;23.00;13.00;;;;;;;13.97;78.44;100548.97;4301445;33;32023;-76
2022/10/30 06:51:48;;;;;;;23.38;14.02;;;;;;;13.60;80.65;100555.00;4302326;33;33810;-74
2022/10/30 06:54:15;;;;;;;22.33;13.32;;;;;;;13.84;79.82;100561.06;4301985;33;33916;-78
2022/10/30 06:56:48;;;;;;;26.83;15.38;;;;;;;14.14;78.94;100561.50;4302941;33;34096;-76
2022/10/30 06:59:16;;;;;;;23.55;13.57;;;;;;;14.24;78.81;100562.72;4303369;33;33575;-77
2022/10/30 07:01:44;;;;;;;20.55;12.85;;;;;;;14.75;75.76;100556.00;4291092;33;34144;-77
2022/10/30 07:04:11;;;;;;;20.40;13.45;;;;;;;14.23;78.00;100563.78;4288395;33;35713;-73
2022/10/30 07:06:39;;;;;;;21.10;12.98;;;;;;;13.60;80.86;100568.63;4288569;33;33999;-74
2022/10/30 07:09:06;;;;;;;24.50;14.87;;;;;;;13.81;80.19;100564.31;4290329;33;33478;-74
2022/10/30 07:11:34;;;;;;;23.30;14.50;;;;;;;13.47;82.25;100569.78;4290232;33;34848;-74
2022/10/30 07:14:01;;;;;;;29.17;14.38;;;;;;;13.76;80.42;100559.63;4297388;33;33606;-74
2022/10/30 07:16:30;;;;;;;20.62;13.30;;;;;;;14.07;78.96;100555.41;4303416;33;33598;-76
2022/10/30 07:18:58;;;;;;;20.88;13.07;;;;;;;13.99;78.82;100552.28;4305007;33;33551;-76
2022/10/30 07:21:31;;;;;;;26.12;13.88;;;;;;;14.40;77.32;100550.91;4304918;33;34063;-75
2022/10/30 07:23:58;;;;;;;22.00;14.13;;;;;;;14.68;75.00;100560.81;4304973;33;35098;-75
2022/10/30 07:26:26;;;;;;;22.80;13.27;;;;;;;14.66;75.19;100554.78;4304885;33;33538;-74
2022/10/30 07:28:54;;;;;;;22.33;13.18;;;;;;;14.64;75.20;100561.59;4305203;33;33587;-74
2022/10/30 07:31:22;;;;;;;25.48;13.43;;;;;;;14.26;77.35;100560.56;4303181;33;34839;-74
2022/10/30 07:34:09;;;;;;;25.45;14.45;;;;;;;14.53;76.25;100561.44;4304734;33;34103;-73
2022/10/30 07:36:38;;;;;;;21.50;13.05;;;;;;;14.57;75.73;100570.78;4304474;33;34635;-76
2022/10/30 07:39:05;;;;;;;24.17;14.23;;;;;;;14.65;74.97;100568.72;4303735;33;33150;-74
2022/10/30 07:41:34;;;;;;;24.83;13.70;;;;;;;14.69;74.99;100565.22;4304693;33;34670;-76
2022/10/30 07:44:11;;;;;;;23.25;13.18;;;;;;;14.96;73.27;100564.38;4303178;33;34487;-72
2022/10/30 07:46:40;;;;;;;20.80;12.88;;;;;;;14.52;75.14;100570.72;4304409;33;33971;-70
2022/10/30 07:49:08;;;;;;;25.65;13.98;;;;;;;14.22;76.86;100575.81;4302497;33;31996;-77
2022/10/30 07:51:37;;;;;;;23.48;14.70;;;;;;;14.32;76.84;100576.75;4304380;33;34846;-71
2022/10/30 07:54:04;;;;;;;26.15;13.82;;;;;;;13.89;79.34;100574.81;4303145;33;35102;-73
2022/10/30 07:56:32;;;;;;;24.73;13.82;;;;;;;14.11;78.64;100570.19;4304248;33;33970;-73
2022/10/30 07:59:02;;;;;;;23.65;13.50;;;;;;;14.70;75.27;100575.03;4304830;33;33276;-74
2022/10/30 08:01:30;;;;;;;23.42;13.57;;;;;;;14.55;76.32;100578.41;4304292;33;33911;-77
2022/10/30 08:04:01;;;;;;;23.12;13.88;;;;;;;14.15;78.80;100571.34;4304319;33;34312;-73
2022/10/30 08:06:29;;;;;;;24.92;14.00;;;;;;;12.95;84.54;100583.56;4304740;33;34646;-76
2022/10/30 08:08:56;;;;;;;22.83;13.62;;;;;;;13.65;82.03;100576.88;4303465;33;33556;-76
2022/10/30 08:11:24;;;;;;;22.85;14.07;;;;;;;14.77;75.75;100574.84;4302755;33;33865;-72
2022/10/30 08:13:52;;;;;;;21.45;13.05;;;;;;;14.70;76.18;100580.50;4304145;33;34970;-73
2022/10/30 08:16:19;;;;;;;22.45;12.82;;;;;;;14.87;75.70;100577.69;4302749;33;33828;-73
2022/10/30 08:18:48;;;;;;;24.05;15.02;;;;;;;14.85;75.54;100571.66;4303787;33;33545;-78
2022/10/30 08:21:17;;;;;;;22.83;13.73;;;;;;;15.55;71.72;100580.78;4303505;33;34717;-79
2022/10/30 08:23:46;;;;;;;20.90;12.98;;;;;;;15.14;72.32;100585.91;4304592;33;34937;-72
2022/10/30 08:26:14;;;;;;;22.13;13.15;;;;;;;15.00;73.37;100576.47;4303279;33;33856;-77
2022/10/30 08:28:41;;;;;;;21.83;12.82;;;;;;;15.22;72.81;100581.84;4304484;33;34191;-73
2022/10/30 08:31:09;;;;;;;19.92;13.32;;;;;;;15.64;71.61;100575.66;4304339;33;33579;-71
2022/10/30 08:33:41;;;;;;;19.73;11.48;;;;;;;15.57;72.34;100577.78;4303057;33;32611;-74
2022/10/30 08:36:13;;;;;;;20.40;12.63;;;;;;;15.53;72.70;100569.28;4304673;33;34714;-75
2022/10/30 08:38:40;;;;;;;22.05;13.30;;;;;;;15.83;71.44;100580.72;4304634;33;33323;-74
2022/10/30 08:41:08;;;;;;;21.65;12.37;;;;;;;15.64;71.87;100575.66;4302988;33;33690;-71
2022/10/30 08:43:37;;;;;;;21.58;12.68;;;;;;;15.52;73.26;100580.47;4304277;33;35767;-72
2022/10/30 08:46:05;;;;;;;20.75;12.88;;;;;;;15.56;72.85;100576.97;4303091;33;33939;-72
2022/10/30 08:48:32;;;;;;;21.30;12.80;;;;;;;14.97;74.50;100577.81;4303218;33;34233;-72
2022/10/30 08:51:00;;;;;;;21.85;13.10;;;;;;;14.46;78.38;100587.28;4304686;33;34183;-72
2022/10/30 08:53:28;;;;;;;20.42;12.85;;;;;;;14.79;75.04;100580.88;4303952;33;34279;-73
2022/10/30 08:55:57;;;;;;;23.87;13.80;;;;;;;13.97;79.39;100571.63;4302940;33;33621;-72
2022/10/30 08:58:24;;;;;;;22.65;13.38;;;;;;;14.38;77.84;100580.34;4304307;33;34287;-73
2022/10/30 09:00:52;;;;;;;23.23;14.02;;;;;;;14.71;76.29;100573.97;4303378;33;34844;-72
2022/10/30 09:03:37;;;;;;;20.40;12.95;;;;;;;14.87;76.51;100577.69;4303870;33;32555;-73
2022/10/30 09:06:10;;;;;;;22.23;12.73;;;;;;;15.57;72.84;100575.03;4304301;33;34508;-77
2022/10/30 09:08:38;;;;;;;23.48;13.70;;;;;;;15.29;74.37;100567.97;4303830;33;31669;-73
2022/10/30 09:11:06;;;;;;;22.83;13.65;;;;;;;15.61;73.31;100564.41;4303571;33;33840;-73
2022/10/30 09:13:34;;;;;;;22.65;13.13;;;;;;;15.29;73.10;100570.72;4303834;33;33881;-76
2022/10/30 09:16:02;;;;;;;24.83;13.73;;;;;;;14.49;76.78;100576.69;4303804;33;34009;-74
2022/10/30 09:18:30;;;;;;;24.85;14.60;;;;;;;14.42;76.51;100583.41;4302186;33;33325;-75
2022/10/30 09:20:57;;;;;;;25.83;15.35;;;;;;;14.39;77.13;100579.28;4304090;33;33990;-74
2022/10/30 09:23:32;;;;;;;25.15;15.05;;;;;;;14.63;77.08;100585.34;4303833;33;33997;-74
2022/10/30 09:26:00;;;;;;;24.27;14.60;;;;;;;13.95;80.17;100569.16;4303584;33;33569;-74
2022/10/30 09:28:28;;;;;;;21.60;13.52;;;;;;;14.75;77.17;100575.13;4302559;33;32009;-76
2022/10/30 09:30:56;;;;;;;24.05;14.73;;;;;;;15.21;75.08;100568.47;4303531;33;33812;-76
2022/10/30 09:33:24;;;;;;;27.13;14.02;;;;;;;15.67;73.09;100569.66;4303966;33;35193;-74
2022/10/30 09:35:54;;;;;;;22.70;13.62;;;;;;;15.51;73.03;100568.72;4302925;33;33436;-74
2022/10/30 09:38:21;;;;;;;25.67;14.45;;;;;;;15.99;71.34;100572.34;4304166;33;33510;-74
2022/10/30 09:41:09;;;;;;;26.02;14.73;;;;;;;15.87;71.32;100570.91;4303342;33;33933;-74
2022/10/30 09:44:13;;;;;;;24.10;14.60;;;;;;;16.14;69.64;100579.84;4304136;33;34043;-73
2022/10/30 09:46:55;;;;;;;27.67;14.80;;;;;;;15.41;72.65;100574.09;4302523;33;33437;-74
2022/10/30 09:49:40;;;;;;;28.10;15.48;;;;;;;13.90;79.08;100570.97;4302037;33;33744;-73
2022/10/30 09:52:34;;;;;;;25.37;14.63;;;;;;;14.91;75.50;100558.87;4303094;33;34855;-74
2022/10/30 09:55:17;;;;;;;27.47;15.70;;;;;;;15.57;72.75;100555.91;4303269;33;33987;-74
2022/10/30 09:58:05;;;;;;;24.10;14.45;;;;;;;15.60;73.01;100555.37;4302476;33;34346;-75
2022/10/30 10:00:38;;;;;;;22.85;14.98;;;;;;;15.54;72.79;100545.50;4290657;33;32809;-74
2022/10/30 10:03:33;;;;;;;24.63;14.35;;;;;;;15.35;73.65;100550.53;4302738;33;33665;-73
2022/10/30 10:06:03;;;;;;;25.20;15.77;;;;;;;14.77;75.98;100544.78;4291025;33;34428;-73
2022/10/30 10:08:42;;;;;;;22.73;14.27;;;;;;;15.33;73.87;100552.69;4301925;33;33770;-73
2022/10/30 10:11:29;;;;;;;26.65;15.27;;;;;;;15.49;72.74;100548.19;4301924;33;31988;-74
2022/10/30 10:14:22;;;;;;;26.55;14.65;;;;;;;15.67;72.31;100545.03;4302601;33;33906;-73
2022/10/30 10:16:54;;;;;;;24.75;14.70;;;;;;;15.74;71.90;100547.56;4303038;33;34243;-73
2022/10/30 10:19:28;;;;;;;28.23;15.85;;;;;;;15.78;72.41;100552.25;4301588;33;33548;-74
2022/10/30 10:21:58;;;;;;;26.05;15.25;;;;;;;15.85;72.47;100543.81;4303022;33;33516;-74
2022/10/30 10:24:30;;;;;;;24.58;13.55;;;;;;;16.28;70.20;100546.50;4301563;33;34042;-73
2022/10/30 10:27:19;;;;;;;25.42;14.27;;;;;;;16.38;69.38;100543.81;4301734;33;34159;-72
2022/10/30 10:30:07;;;;;;;26.30;15.38;;;;;;;16.35;69.65;100536.13;4303101;33;34721;-76
2022/10/30 10:33:02;;;;;;;24.90;15.23;;;;;;;16.57;68.69;100542.22;4301881;33;32582;-77
2022/10/30 10:35:39;;;;;;;25.62;13.88;;;;;;;16.25;69.75;100542.37;4302956;33;34224;-71
2022/10/30 10:38:29;;;;;;;22.08;14.13;;;;;;;16.27;69.57;100531.97;4303282;33;34098;-72
2022/10/30 10:41:28;;;;;;;21.95;13.05;;;;;;;16.18;70.35;100531.69;4302610;33;34734;-75
2022/10/30 10:44:24;;;;;;;22.80;13.43;;;;;;;16.35;69.69;100531.47;4305288;33;34436;-75
2022/10/30 10:47:22;;;;;;;25.92;13.77;;;;;;;16.17;70.36;100521.81;4303951;33;34699;-73
2022/10/30 10:50:12;;;;;;;22.17;12.68;;;;;;;16.30;69.90;100522.41;4303864;33;35189;-74
2022/10/30 10:52:52;;;;;;;21.10;13.40;;;;;;;16.57;68.83;100533.19;4303775;33;33671;-74
2022/10/30 10:55:27;;;;;;;21.62;13.18;;;;;;;16.19;69.75;100522.34;4302989;33;32755;-73
2022/10/30 10:58:01;;;;;;;19.40;12.25;;;;;;;16.57;69.65;100525.78;4303626;33;34716;-74
2022/10/30 11:00:29;;;;;;;22.43;11.97;;;;;;;16.36;70.89;100524.91;4303099;33;33889;-71
2022/10/30 11:03:10;;;;;;;19.45;11.52;;;;;;;16.62;69.64;100528.53;4296004;33;33819;-73
2022/10/30 11:05:47;;;;;;;20.40;12.65;;;;;;;16.73;69.47;100525.81;4286007;33;33482;-72
2022/10/30 11:08:19;;;;;;;20.33;11.10;;;;;;;16.92;69.19;100527.00;4287896;33;34745;-72
2022/10/30 11:10:49;;;;;;;21.70;12.20;;;;;;;16.91;67.68;100519.88;4287303;33;34267;-72
2022/10/30 11:13:17;;;;;;;19.75;12.20;;;;;;;16.80;67.99;100509.97;4286384;33;34686;-71
2022/10/30 11:15:56;;;;;;;22.20;12.13;;;;;;;16.68;68.38;100509.38;4294210;33;33288;-75
2022/10/30 11:18:24;;;;;;;20.60;12.25;;;;;;;16.75;69.36;100510.75;4301227;33;33906;-73
2022/10/30 11:21:18;;;;;;;21.73;13.07;;;;;;;16.95;67.61;100515.50;4289819;33;33301;-75
2022/10/30 11:23:47;;;;;;;19.10;11.85;;;;;;;16.80;68.39;100504.50;4303356;33;33441;-73
2022/10/30 11:26:19;;;;;;;19.33;12.73;;;;;;;16.70;69.75;100501.72;4302386;33;33564;-75
2022/10/30 11:28:52;;;;;;;18.92;11.40;;;;;;;16.78;68.64;100509.38;4303573;33;34846;-74